Time;durP1;ratioP1;P1;durP2;ratioP2;P2;SDS_P1;SDS_P2;PMS_P1;PMS_P2;Temp;Humidity;BMP_temperature;BMP_pressure;BME280_temperature;BME280_humidity;BME280_pressure;Samples;Min_cycle;Max_cycle;Signal;HPM_P1;HPM_P2
2024/04/16 00:02:25;;;;;;;1.60;1.50;;;;;;;;;;5448530;26;20482;-67
2024/04/16 00:04:51;;;;;;;2.15;1.88;;;;;;;;;;5448760;26;20021;-68
2024/04/16 00:07:22;;;;;;;3.45;1.58;;;;;;;;;;5446551;26;20039;-67
2024/04/16 00:09:48;;;;;;;4.32;2.03;;;;;;;;;;5419023;26;20007;-67
2024/04/16 00:12:14;;;;;;;2.17;1.98;;;;;;;;;;5443240;26;20035;-68
2024/04/16 00:14:41;;;;;;;7.72;2.35;;;;;;;;;;5444362;26;20003;-68
2024/04/16 00:17:07;;;;;;;3.65;1.98;;;;;;;;;;5440809;26;20015;-68
2024/04/16 00:19:33;;;;;;;9.57;2.47;;;;;;;;;;5437099;26;20064;-67
2024/04/16 00:22:01;;;;;;;8.73;2.38;;;;;;;;;;5444132;26;19998;-68
2024/04/16 00:24:27;;;;;;;3.28;1.95;;;;;;;;;;5435636;26;20018;-68
2024/04/16 00:26:53;;;;;;;15.52;2.40;;;;;;;;;;5431975;26;19995;-68
2024/04/16 00:29:20;;;;;;;1.58;1.52;;;;;;;;;;5450269;26;20483;-68
2024/04/16 00:31:46;;;;;;;5.45;2.10;;;;;;;;;;5445214;26;20018;-67
2024/04/16 00:34:12;;;;;;;3.80;1.85;;;;;;;;;;5440138;26;19998;-68
2024/04/16 00:36:39;;;;;;;10.13;2.80;;;;;;;;;;5442238;26;20031;-67
2024/04/16 00:39:05;;;;;;;7.72;2.33;;;;;;;;;;5444271;26;20525;-67
2024/04/16 00:41:31;;;;;;;5.47;2.35;;;;;;;;;;5447472;26;20003;-67
2024/04/16 00:43:57;;;;;;;5.72;2.25;;;;;;;;;;5445452;26;19992;-67
2024/04/16 00:46:24;;;;;;;5.63;2.00;;;;;;;;;;5442720;26;19999;-68
2024/04/16 00:48:50;;;;;;;2.03;1.67;;;;;;;;;;5443525;26;20003;-68
2024/04/16 00:51:19;;;;;;;8.43;1.98;;;;;;;;;;5440370;26;20327;-67
2024/04/16 00:53:45;;;;;;;5.65;1.98;;;;;;;;;;5436782;26;20003;-67
2024/04/16 00:56:12;;;;;;;4.03;1.73;;;;;;;;;;5444723;26;20002;-67
2024/04/16 00:58:40;;;;;;;6.88;1.88;;;;;;;;;;5422081;26;20007;-68
2024/04/16 01:01:06;;;;;;;11.52;2.20;;;;;;;;;;5438955;26;20056;-67
2024/04/16 01:03:32;;;;;;;5.05;2.22;;;;;;;;;;5441884;26;20043;-67
2024/04/16 01:05:58;;;;;;;2.25;1.60;;;;;;;;;;5381437;26;20015;-67
2024/04/16 01:08:24;;;;;;;3.65;2.08;;;;;;;;;;5439988;26;20003;-67
2024/04/16 01:10:51;;;;;;;9.40;2.05;;;;;;;;;;5444200;26;19998;-68
2024/04/16 01:13:17;;;;;;;2.97;2.17;;;;;;;;;;5450241;26;19999;-68
2024/04/16 01:15:43;;;;;;;2.10;1.90;;;;;;;;;;5443990;26;20441;-67
2024/04/16 01:18:09;;;;;;;4.03;1.70;;;;;;;;;;5442460;26;20011;-67
2024/04/16 01:20:36;;;;;;;2.42;1.73;;;;;;;;;;5447479;26;19995;-67
2024/04/16 01:23:03;;;;;;;5.85;2.00;;;;;;;;;;5384821;26;19999;-67
2024/04/16 01:25:31;;;;;;;2.50;2.25;;;;;;;;;;5443662;26;20516;-67
2024/04/16 01:27:57;;;;;;;5.03;2.08;;;;;;;;;;5421390;26;20395;-68
2024/04/16 01:30:23;;;;;;;2.30;2.05;;;;;;;;;;5446682;26;20431;-67
2024/04/16 01:32:49;;;;;;;4.85;2.03;;;;;;;;;;5443231;26;20079;-68
2024/04/16 01:35:16;;;;;;;5.72;2.22;;;;;;;;;;5442882;26;19991;-67
2024/04/16 01:37:42;;;;;;;1.70;1.60;;;;;;;;;;5445122;26;20014;-67
2024/04/16 01:40:10;;;;;;;9.00;2.30;;;;;;;;;;5423971;26;20010;-68
2024/04/16 01:42:36;;;;;;;6.53;1.90;;;;;;;;;;5451377;26;20050;-69
2024/04/16 01:45:02;;;;;;;4.03;1.58;;;;;;;;;;5412812;26;20007;-68
2024/04/16 01:47:29;;;;;;;4.28;2.15;;;;;;;;;;5444699;26;19999;-68
2024/04/16 01:49:55;;;;;;;1.88;1.40;;;;;;;;;;5446149;26;20075;-68
2024/04/16 01:52:21;;;;;;;7.22;1.80;;;;;;;;;;5435970;26;19998;-67
2024/04/16 01:54:47;;;;;;;5.63;1.73;;;;;;;;;;5442405;26;20009;-67
2024/04/16 01:57:13;;;;;;;6.13;1.88;;;;;;;;;;5429204;26;20006;-67
2024/04/16 01:59:40;;;;;;;3.22;2.30;;;;;;;;;;5412292;26;20008;-67
2024/04/16 02:02:07;;;;;;;4.90;2.00;;;;;;;;;;5438137;26;20007;-67
2024/04/16 02:04:34;;;;;;;5.97;1.92;;;;;;;;;;5434870;26;20018;-67
2024/04/16 02:07:00;;;;;;;7.68;2.78;;;;;;;;;;5417587;26;19994;-67
2024/04/16 02:09:26;;;;;;;1.85;1.75;;;;;;;;;;5436408;26;20007;-68
2024/04/16 02:11:52;;;;;;;2.22;2.08;;;;;;;;;;5438933;26;20433;-68
2024/04/16 02:14:18;;;;;;;1.80;1.70;;;;;;;;;;5415140;26;20065;-68
2024/04/16 02:16:44;;;;;;;3.72;1.85;;;;;;;;;;5407059;26;20443;-68
2024/04/16 02:19:10;;;;;;;2.72;1.90;;;;;;;;;;5403828;26;20011;-67
2024/04/16 02:21:36;;;;;;;2.83;1.80;;;;;;;;;;5441976;26;20464;-68
2024/04/16 02:24:03;;;;;;;12.45;2.08;;;;;;;;;;5440713;26;20100;-67
2024/04/16 02:26:29;;;;;;;6.43;1.90;;;;;;;;;;5410052;26;20022;-67
2024/04/16 02:28:55;;;;;;;4.25;2.05;;;;;;;;;;5442844;26;20017;-67
2024/04/16 02:31:21;;;;;;;3.15;1.55;;;;;;;;;;5441143;26;20005;-67
2024/04/16 02:33:47;;;;;;;1.80;1.70;;;;;;;;;;5442323;26;19995;-67
2024/04/16 02:36:14;;;;;;;4.70;1.92;;;;;;;;;;5408524;26;20018;-67
2024/04/16 02:38:40;;;;;;;6.63;1.63;;;;;;;;;;5446484;26;20022;-67
2024/04/16 02:41:06;;;;;;;6.20;1.42;;;;;;;;;;5438182;26;20014;-67
2024/04/16 02:43:32;;;;;;;5.45;1.75;;;;;;;;;;5442308;26;20002;-68
2024/04/16 02:45:59;;;;;;;4.30;1.42;;;;;;;;;;5435658;26;20014;-67
2024/04/16 02:48:25;;;;;;;3.67;1.77;;;;;;;;;;5440666;26;20002;-67
2024/04/16 02:50:52;;;;;;;4.70;1.73;;;;;;;;;;5401503;26;19995;-67
2024/04/16 02:53:19;;;;;;;4.53;1.90;;;;;;;;;;5404265;26;20495;-67
2024/04/16 02:55:45;;;;;;;8.60;1.83;;;;;;;;;;5413995;26;20006;-67
2024/04/16 02:58:11;;;;;;;2.38;1.42;;;;;;;;;;5436915;26;20060;-67
2024/04/16 03:00:38;;;;;;;5.38;1.75;;;;;;;;;;5433970;26;20010;-68
2024/04/16 03:03:04;;;;;;;1.33;1.33;;;;;;;;;;5416128;26;19995;-67
2024/04/16 03:05:30;;;;;;;1.52;1.42;;;;;;;;;;5449874;26;20011;-67
2024/04/16 03:07:57;;;;;;;10.02;1.90;;;;;;;;;;5441781;26;20066;-67
2024/04/16 03:10:23;;;;;;;2.20;1.35;;;;;;;;;;5436568;26;20003;-67
2024/04/16 03:12:54;;;;;;;4.22;2.35;;;;;;;;;;5440631;26;20489;-66
2024/04/16 03:15:20;;;;;;;1.58;1.50;;;;;;;;;;5443094;26;20014;-67
2024/04/16 03:17:46;;;;;;;1.80;1.70;;;;;;;;;;5414627;26;20030;-66
2024/04/16 03:20:12;;;;;;;3.55;1.77;;;;;;;;;;5433421;26;20061;-67
2024/04/16 03:22:38;;;;;;;3.55;1.45;;;;;;;;;;5440084;26;20025;-67
2024/04/16 03:25:05;;;;;;;2.88;1.40;;;;;;;;;;5445430;26;19999;-68
2024/04/16 03:27:31;;;;;;;3.83;1.52;;;;;;;;;;5415428;26;20013;-67
2024/04/16 03:29:57;;;;;;;4.32;1.80;;;;;;;;;;5440932;26;19999;-68
2024/04/16 03:32:23;;;;;;;3.88;1.50;;;;;;;;;;5436948;26;20478;-67
2024/04/16 03:34:49;;;;;;;8.70;1.77;;;;;;;;;;5434241;26;20386;-68
2024/04/16 03:37:15;;;;;;;1.80;1.70;;;;;;;;;;5437192;26;20003;-67
2024/04/16 03:39:42;;;;;;;6.50;1.85;;;;;;;;;;5433617;26;20019;-67
2024/04/16 03:42:08;;;;;;;1.83;1.73;;;;;;;;;;5433022;26;19998;-66
2024/04/16 03:44:34;;;;;;;4.22;1.75;;;;;;;;;;5434884;26;20014;-63
2024/04/16 03:47:01;;;;;;;3.38;1.45;;;;;;;;;;5429434;26;20016;-63
2024/04/16 03:49:27;;;;;;;6.03;1.90;;;;;;;;;;5432994;26;20303;-63
2024/04/16 03:51:53;;;;;;;7.78;1.83;;;;;;;;;;5433625;26;20003;-63
2024/04/16 03:54:19;;;;;;;4.47;1.67;;;;;;;;;;5437624;26;20695;-63
2024/04/16 03:56:45;;;;;;;4.03;1.52;;;;;;;;;;5438323;26;19998;-63
2024/04/16 04:01:56;;;;;;;2.40;1.60;;;;;;;;;;5435442;26;20071;-63
2024/04/16 04:04:23;;;;;;;2.17;1.45;;;;;;;;;;5429122;26;20021;-63
2024/04/16 04:06:49;;;;;;;7.43;2.03;;;;;;;;;;5438794;26;21621;-63
2024/04/16 04:09:15;;;;;;;1.40;1.40;;;;;;;;;;5420951;26;19999;-64
2024/04/16 04:11:41;;;;;;;2.00;1.55;;;;;;;;;;5442709;26;20007;-63
2024/04/16 04:14:08;;;;;;;1.98;1.27;;;;;;;;;;5402892;26;20011;-63
2024/04/16 04:16:34;;;;;;;1.50;1.40;;;;;;;;;;5405269;26;19995;-63
2024/04/16 04:19:00;;;;;;;5.90;1.67;;;;;;;;;;5429281;26;20003;-64
2024/04/16 04:21:26;;;;;;;2.00;1.80;;;;;;;;;;5433794;26;21717;-63
2024/04/16 04:23:53;;;;;;;1.27;1.25;;;;;;;;;;5413066;26;20011;-63
2024/04/16 04:26:19;;;;;;;6.22;1.77;;;;;;;;;;5428609;26;19995;-63
2024/04/16 04:28:45;;;;;;;1.13;1.13;;;;;;;;;;5409684;26;20010;-63
2024/04/16 04:31:19;;;;;;;6.20;1.65;;;;;;;;;;5434059;26;20011;-63
2024/04/16 04:33:45;;;;;;;3.05;1.80;;;;;;;;;;5412699;26;20002;-63
2024/04/16 04:36:13;;;;;;;2.60;1.30;;;;;;;;;;5429529;26;20006;-63
2024/04/16 04:38:39;;;;;;;1.17;1.10;;;;;;;;;;5414384;26;20458;-63
2024/04/16 04:41:05;;;;;;;3.20;2.17;;;;;;;;;;5427362;26;20000;-63
2024/04/16 04:43:31;;;;;;;1.42;1.40;;;;;;;;;;5431666;26;20003;-63
2024/04/16 04:45:58;;;;;;;6.85;1.55;;;;;;;;;;5434661;26;20549;-63
2024/04/16 04:48:24;;;;;;;2.05;1.52;;;;;;;;;;5428215;26;19999;-63
2024/04/16 04:50:51;;;;;;;2.25;1.58;;;;;;;;;;5431171;26;20010;-63
2024/04/16 04:53:20;;;;;;;4.32;1.52;;;;;;;;;;5410079;26;20438;-63
2024/04/16 04:55:46;;;;;;;1.95;1.20;;;;;;;;;;5431411;26;19994;-63
2024/04/16 04:58:12;;;;;;;2.03;1.90;;;;;;;;;;5400561;26;20011;-63
2024/04/16 05:00:38;;;;;;;1.48;1.38;;;;;;;;;;5436257;26;19999;-64
2024/04/16 05:03:05;;;;;;;1.38;1.27;;;;;;;;;;5437165;26;20075;-63
2024/04/16 05:05:34;;;;;;;3.35;2.17;;;;;;;;;;5439295;26;20007;-63
2024/04/16 05:08:00;;;;;;;9.68;2.10;;;;;;;;;;5434257;26;20060;-63
2024/04/16 05:10:27;;;;;;;4.00;1.50;;;;;;;;;;5379222;26;20364;-63
2024/04/16 05:12:53;;;;;;;1.15;1.15;;;;;;;;;;5428685;26;20015;-63
2024/04/16 05:15:20;;;;;;;2.72;1.30;;;;;;;;;;5418282;26;20331;-63
2024/04/16 05:17:49;;;;;;;1.40;1.30;;;;;;;;;;5438040;26;20454;-62
2024/04/16 05:20:16;;;;;;;3.33;1.33;;;;;;;;;;5429720;26;19992;-63
2024/04/16 05:22:47;;;;;;;3.05;1.40;;;;;;;;;;5433593;26;20006;-63
2024/04/16 05:25:14;;;;;;;8.25;1.52;;;;;;;;;;5431999;26;20007;-63
2024/04/16 05:27:40;;;;;;;1.33;1.33;;;;;;;;;;5430325;26;19999;-63
2024/04/16 05:30:08;;;;;;;1.17;1.17;;;;;;;;;;5406338;26;20026;-63
2024/04/16 05:32:34;;;;;;;3.83;1.60;;;;;;;;;;5384652;26;20440;-63
2024/04/16 05:35:00;;;;;;;1.23;1.23;;;;;;;;;;5439222;26;20436;-62
2024/04/16 05:37:27;;;;;;;3.50;1.40;;;;;;;;;;5431915;26;20087;-63
2024/04/16 05:39:53;;;;;;;1.48;1.42;;;;;;;;;;5421186;26;20322;-65
2024/04/16 05:42:19;;;;;;;1.67;1.52;;;;;;;;;;5409351;26;19991;-63
2024/04/16 05:44:46;;;;;;;2.03;1.08;;;;;;;;;;5421648;26;19998;-63
2024/04/16 05:47:13;;;;;;;1.52;1.42;;;;;;;;;;5422221;26;20014;-63
2024/04/16 05:49:39;;;;;;;1.38;1.05;;;;;;;;;;5429687;26;20007;-63
2024/04/16 05:52:06;;;;;;;2.05;1.95;;;;;;;;;;5396848;26;20330;-63
2024/04/16 05:54:33;;;;;;;1.13;1.13;;;;;;;;;;5434194;26;19991;-63
2024/04/16 05:57:00;;;;;;;1.50;1.40;;;;;;;;;;5432547;26;20002;-65
2024/04/16 05:59:26;;;;;;;1.10;1.10;;;;;;;;;;5433917;26;20017;-63
2024/04/16 06:01:52;;;;;;;2.33;1.20;;;;;;;;;;5402184;26;20007;-63
2024/04/16 06:04:18;;;;;;;7.50;1.95;;;;;;;;;;5429813;26;20017;-63
2024/04/16 06:06:44;;;;;;;4.43;1.30;;;;;;;;;;5425337;26;20439;-64
2024/04/16 06:09:10;;;;;;;4.85;1.45;;;;;;;;;;5423498;26;20557;-63
2024/04/16 06:11:37;;;;;;;2.17;1.20;;;;;;;;;;5423702;26;19999;-63
2024/04/16 06:14:03;;;;;;;1.23;1.23;;;;;;;;;;5428852;26;20021;-62
2024/04/16 06:16:29;;;;;;;1.58;1.48;;;;;;;;;;5428445;26;19999;-63
2024/04/16 06:18:55;;;;;;;1.27;1.27;;;;;;;;;;5424850;26;20004;-63
2024/04/16 06:21:21;;;;;;;1.00;1.00;;;;;;;;;;5428959;26;19994;-66
2024/04/16 06:23:49;;;;;;;1.75;1.08;;;;;;;;;;5391582;26;20014;-63
2024/04/16 06:26:16;;;;;;;1.77;1.10;;;;;;;;;;5435998;26;20013;-63
2024/04/16 06:28:42;;;;;;;1.05;1.05;;;;;;;;;;5427381;26;20012;-63
2024/04/16 06:31:08;;;;;;;1.45;1.40;;;;;;;;;;5414892;26;20020;-63
2024/04/16 06:33:36;;;;;;;3.80;1.50;;;;;;;;;;5409298;26;19998;-62
2024/04/16 06:36:05;;;;;;;1.20;1.20;;;;;;;;;;5410898;26;20297;-62
2024/04/16 06:38:32;;;;;;;1.10;1.10;;;;;;;;;;5416972;26;20503;-63
2024/04/16 06:41:01;;;;;;;1.38;1.38;;;;;;;;;;5439656;26;20404;-63
2024/04/16 06:43:28;;;;;;;4.35;1.30;;;;;;;;;;5420885;26;20053;-62
2024/04/16 06:45:55;;;;;;;1.55;1.45;;;;;;;;;;5445860;26;20002;-63
2024/04/16 06:48:22;;;;;;;4.10;1.58;;;;;;;;;;5431879;26;20003;-64
2024/04/16 06:50:49;;;;;;;0.98;0.98;;;;;;;;;;5417272;26;20454;-63
2024/04/16 06:53:15;;;;;;;2.53;1.30;;;;;;;;;;5452334;26;20044;-62
2024/04/16 06:55:41;;;;;;;1.20;1.20;;;;;;;;;;5412204;26;20006;-63
2024/04/16 06:58:08;;;;;;;2.38;1.15;;;;;;;;;;5445518;26;20524;-63
2024/04/16 07:00:34;;;;;;;1.75;1.65;;;;;;;;;;5438774;26;20498;-62
2024/04/16 07:03:01;;;;;;;1.23;1.23;;;;;;;;;;5419373;26;20231;-63
2024/04/16 07:05:27;;;;;;;5.57;1.38;;;;;;;;;;5437769;26;20502;-63
2024/04/16 07:07:53;;;;;;;2.55;1.55;;;;;;;;;;5441953;26;20575;-63
2024/04/16 07:10:19;;;;;;;3.33;1.58;;;;;;;;;;5456582;26;20039;-63
2024/04/16 07:12:46;;;;;;;1.10;1.10;;;;;;;;;;5409379;26;20004;-63
2024/04/16 07:15:12;;;;;;;1.20;1.20;;;;;;;;;;5452480;26;20018;-63
2024/04/16 07:17:38;;;;;;;1.30;1.30;;;;;;;;;;5434802;26;20933;-63
2024/04/16 07:20:05;;;;;;;1.35;1.25;;;;;;;;;;5451440;26;20146;-63
2024/04/16 07:22:32;;;;;;;1.30;1.30;;;;;;;;;;5444751;26;20341;-63
2024/04/16 07:24:58;;;;;;;1.98;1.77;;;;;;;;;;5447826;26;19994;-63
2024/04/16 07:27:24;;;;;;;1.33;1.33;;;;;;;;;;5448224;26;20002;-63
2024/04/16 07:29:51;;;;;;;2.67;1.48;;;;;;;;;;5444267;26;20472;-63
2024/04/16 07:32:17;;;;;;;3.38;1.45;;;;;;;;;;5411458;26;20302;-63
2024/04/16 07:34:44;;;;;;;1.20;1.20;;;;;;;;;;5415030;26;20321;-63
2024/04/16 07:37:10;;;;;;;1.08;1.08;;;;;;;;;;5434593;26;20019;-64
2024/04/16 07:39:36;;;;;;;1.25;1.23;;;;;;;;;;5437658;26;20296;-63
2024/04/16 07:42:02;;;;;;;1.30;1.30;;;;;;;;;;5438707;26;20572;-63
2024/04/16 07:44:29;;;;;;;1.40;1.35;;;;;;;;;;5413369;26;20000;-63
2024/04/16 07:46:55;;;;;;;1.10;1.10;;;;;;;;;;5383921;26;20034;-63
2024/04/16 07:49:22;;;;;;;4.82;1.48;;;;;;;;;;5441110;26;20418;-63
2024/04/16 07:51:49;;;;;;;1.15;1.10;;;;;;;;;;5416312;26;20438;-63
2024/04/16 07:54:15;;;;;;;1.20;1.20;;;;;;;;;;5450912;26;20327;-64
2024/04/16 07:56:42;;;;;;;1.30;1.30;;;;;;;;;;5404874;26;19991;-63
2024/04/16 07:59:08;;;;;;;2.90;1.25;;;;;;;;;;5452600;26;20002;-63
2024/04/16 08:01:34;;;;;;;1.13;1.10;;;;;;;;;;5441394;26;20331;-64
2024/04/16 08:04:01;;;;;;;4.68;1.27;;;;;;;;;;5447474;26;20017;-64
2024/04/16 08:06:27;;;;;;;1.10;1.10;;;;;;;;;;5445615;26;20674;-64
2024/04/16 08:08:56;;;;;;;1.60;1.50;;;;;;;;;;5401119;26;20594;-63
2024/04/16 08:11:23;;;;;;;5.57;1.25;;;;;;;;;;5438662;26;20099;-64
2024/04/16 08:13:50;;;;;;;1.48;1.33;;;;;;;;;;5430448;26;19990;-63
2024/04/16 08:16:16;;;;;;;4.55;1.85;;;;;;;;;;5444391;26;20047;-64
2024/04/16 08:18:43;;;;;;;1.30;1.20;;;;;;;;;;5446891;26;19998;-65
2024/04/16 08:21:09;;;;;;;5.50;1.83;;;;;;;;;;5421183;26;20451;-63
2024/04/16 08:23:35;;;;;;;2.08;1.50;;;;;;;;;;5449792;26;20880;-64
2024/04/16 08:26:06;;;;;;;9.18;2.05;;;;;;;;;;5419984;26;19998;-63
2024/04/16 08:28:35;;;;;;;8.95;2.30;;;;;;;;;;5449196;26;20486;-63
2024/04/16 08:31:02;;;;;;;4.00;1.98;;;;;;;;;;5441216;26;19994;-63
2024/04/16 08:33:29;;;;;;;2.45;1.58;;;;;;;;;;5410600;26;20082;-63
2024/04/16 08:35:57;;;;;;;3.17;1.60;;;;;;;;;;5453734;26;20494;-64
2024/04/16 08:38:23;;;;;;;1.92;1.75;;;;;;;;;;5451984;26;20327;-63
2024/04/16 08:40:50;;;;;;;1.92;1.77;;;;;;;;;;5451447;26;20008;-64
2024/04/16 08:43:16;;;;;;;2.63;1.67;;;;;;;;;;5452173;26;20009;-63
2024/04/16 08:45:43;;;;;;;3.50;1.75;;;;;;;;;;5446974;26;20030;-62
2024/04/16 08:48:09;;;;;;;5.32;1.70;;;;;;;;;;5445383;26;19998;-64
2024/04/16 08:50:36;;;;;;;1.70;1.58;;;;;;;;;;5446252;26;20026;-64
2024/04/16 08:53:04;;;;;;;3.47;2.00;;;;;;;;;;5452904;26;19994;-63
2024/04/16 08:55:34;;;;;;;8.35;1.73;;;;;;;;;;5447282;26;20432;-63
2024/04/16 08:58:00;;;;;;;1.30;1.30;;;;;;;;;;5452359;26;20410;-64
2024/04/16 09:00:26;;;;;;;5.45;1.60;;;;;;;;;;5412266;26;21810;-63
2024/04/16 09:02:53;;;;;;;2.72;1.80;;;;;;;;;;5442380;26;20009;-63
2024/04/16 09:05:19;;;;;;;1.85;1.30;;;;;;;;;;5456369;26;20006;-64
2024/04/16 09:07:49;;;;;;;3.78;1.60;;;;;;;;;;5422574;26;20389;-63
2024/04/16 09:10:15;;;;;;;1.45;1.38;;;;;;;;;;5453770;26;20125;-63
2024/04/16 09:12:45;;;;;;;4.82;1.92;;;;;;;;;;5446227;26;20007;-64
2024/04/16 09:15:15;;;;;;;3.72;1.55;;;;;;;;;;5457001;26;20079;-65
2024/04/16 09:17:51;;;;;;;4.55;1.35;;;;;;;;;;5417078;26;20443;-63
2024/04/16 09:20:19;;;;;;;3.92;1.30;;;;;;;;;;5445145;26;20460;-64
2024/04/16 09:22:49;;;;;;;1.85;1.75;;;;;;;;;;5414011;26;21290;-64
2024/04/16 09:25:16;;;;;;;2.97;1.70;;;;;;;;;;5423423;26;20688;-64
2024/04/16 09:27:45;;;;;;;1.52;1.40;;;;;;;;;;5449319;26;20079;-63
2024/04/16 09:30:16;;;;;;;2.17;1.48;;;;;;;;;;5445951;26;19999;-64
2024/04/16 09:32:45;;;;;;;1.23;1.23;;;;;;;;;;5428099;26;20007;-64
2024/04/16 09:35:11;;;;;;;6.15;1.67;;;;;;;;;;5394904;26;20537;-63
2024/04/16 09:37:37;;;;;;;5.30;1.98;;;;;;;;;;5408459;26;20698;-63
2024/04/16 09:40:05;;;;;;;1.95;1.50;;;;;;;;;;5440552;26;19998;-63
2024/04/16 09:42:32;;;;;;;2.50;2.10;;;;;;;;;;5400403;26;20015;-66
2024/04/16 09:44:59;;;;;;;3.22;1.85;;;;;;;;;;5426903;26;20006;-66
2024/04/16 09:47:25;;;;;;;3.08;1.65;;;;;;;;;;5378311;26;20548;-66
2024/04/16 09:49:55;;;;;;;8.38;2.13;;;;;;;;;;5428667;26;20070;-65
2024/04/16 09:52:21;;;;;;;3.75;1.60;;;;;;;;;;5419206;26;20339;-67
2024/04/16 09:54:53;;;;;;;5.07;1.58;;;;;;;;;;5448104;26;20580;-66
2024/04/16 09:57:21;;;;;;;1.48;1.38;;;;;;;;;;5415015;26;20018;-66
2024/04/16 09:59:50;;;;;;;2.97;1.40;;;;;;;;;;5415141;26;20330;-66
2024/04/16 10:02:17;;;;;;;1.77;1.48;;;;;;;;;;5450248;26;20013;-66
2024/04/16 10:04:43;;;;;;;2.78;1.52;;;;;;;;;;5449841;26;20007;-66
2024/04/16 10:07:09;;;;;;;4.28;1.30;;;;;;;;;;5445611;26;19994;-67
2024/04/16 10:09:36;;;;;;;5.60;1.77;;;;;;;;;;5447030;26;20299;-67
2024/04/16 10:12:03;;;;;;;3.30;1.70;;;;;;;;;;5457053;26;20006;-63
2024/04/16 10:14:29;;;;;;;7.03;1.95;;;;;;;;;;5396556;26;20015;-64
2024/04/16 10:16:56;;;;;;;4.90;1.55;;;;;;;;;;5374929;26;20036;-67
2024/04/16 10:19:23;;;;;;;2.15;1.63;;;;;;;;;;5379520;26;20041;-64
2024/04/16 10:21:49;;;;;;;3.50;2.03;;;;;;;;;;5352893;26;20328;-64
2024/04/16 10:24:18;;;;;;;2.92;1.63;;;;;;;;;;5365402;26;20015;-64
2024/04/16 10:26:48;;;;;;;6.72;1.85;;;;;;;;;;5379676;26;20015;-64
2024/04/16 10:29:14;;;;;;;4.22;1.50;;;;;;;;;;5379687;26;21143;-65
2024/04/16 10:31:43;;;;;;;1.50;1.40;;;;;;;;;;5382508;26;20790;-64
2024/04/16 10:34:18;;;;;;;1.92;1.83;;;;;;;;;;5367572;26;20000;-63
2024/04/16 10:36:44;;;;;;;3.38;1.52;;;;;;;;;;5367866;26;20018;-63
2024/04/16 10:39:11;;;;;;;1.05;1.05;;;;;;;;;;5370185;26;20595;-63
2024/04/16 10:41:37;;;;;;;1.83;1.40;;;;;;;;;;5369450;26;20444;-63
2024/04/16 10:44:04;;;;;;;2.67;2.28;;;;;;;;;;5354378;26;20007;-64
2024/04/16 10:46:31;;;;;;;4.07;1.83;;;;;;;;;;5379610;26;20008;-63
2024/04/16 10:48:57;;;;;;;2.72;1.77;;;;;;;;;;5375648;26;20000;-64
2024/04/16 10:51:28;;;;;;;5.50;1.80;;;;;;;;;;5338618;26;20014;-63
2024/04/16 10:54:05;;;;;;;4.20;1.73;;;;;;;;;;5375241;26;20003;-66
2024/04/16 10:56:31;;;;;;;3.00;2.15;;;;;;;;;;5374470;26;19996;-64
2024/04/16 10:58:58;;;;;;;1.67;1.45;;;;;;;;;;5376216;26;20004;-64
2024/04/16 11:01:25;;;;;;;2.95;1.40;;;;;;;;;;5343065;26;20018;-65
2024/04/16 11:03:51;;;;;;;4.38;1.58;;;;;;;;;;5372052;26;20000;-64
2024/04/16 11:06:17;;;;;;;3.63;1.67;;;;;;;;;;5370113;26;19996;-64
2024/04/16 11:08:44;;;;;;;1.88;1.70;;;;;;;;;;5378478;26;20909;-64
2024/04/16 11:11:10;;;;;;;2.60;1.73;;;;;;;;;;5368302;26;20048;-64
2024/04/16 11:13:37;;;;;;;1.98;1.88;;;;;;;;;;5378991;26;20075;-64
2024/04/16 11:16:07;;;;;;;1.60;1.50;;;;;;;;;;5396056;26;19999;-64
2024/04/16 11:18:33;;;;;;;3.50;1.73;;;;;;;;;;5440841;26;20021;-64
2024/04/16 11:21:02;;;;;;;1.40;1.25;;;;;;;;;;5453262;26;20061;-65
2024/04/16 11:23:29;;;;;;;2.58;2.00;;;;;;;;;;5403816;26;20557;-65
2024/04/16 11:25:55;;;;;;;2.28;1.73;;;;;;;;;;5418235;26;20339;-64
2024/04/16 11:28:22;;;;;;;4.15;1.90;;;;;;;;;;5432091;26;20740;-64
2024/04/16 11:30:57;;;;;;;6.65;2.00;;;;;;;;;;5447919;26;20017;-64
2024/04/16 11:33:25;;;;;;;4.50;1.88;;;;;;;;;;5416637;26;20004;-64
2024/04/16 11:35:51;;;;;;;2.55;1.40;;;;;;;;;;5393252;26;20400;-65
2024/04/16 11:38:23;;;;;;;2.80;1.80;;;;;;;;;;5442883;26;20003;-66
2024/04/16 11:40:51;;;;;;;2.25;2.05;;;;;;;;;;5424603;26;19998;-67
2024/04/16 11:43:17;;;;;;;1.60;1.50;;;;;;;;;;5446575;26;20010;-66
2024/04/16 11:45:44;;;;;;;2.15;2.00;;;;;;;;;;5449820;26;20683;-65
2024/04/16 11:48:10;;;;;;;2.95;1.42;;;;;;;;;;5443522;26;20455;-66
2024/04/16 11:50:37;;;;;;;2.08;1.60;;;;;;;;;;5416160;26;20563;-68
2024/04/16 11:53:03;;;;;;;1.52;1.42;;;;;;;;;;5442214;26;19995;-67
2024/04/16 11:55:29;;;;;;;1.40;1.38;;;;;;;;;;5440835;26;19999;-67
2024/04/16 11:57:55;;;;;;;1.80;1.67;;;;;;;;;;5409467;26;20010;-70
2024/04/16 12:00:22;;;;;;;1.70;1.50;;;;;;;;;;5456229;26;20006;-68
2024/04/16 12:02:48;;;;;;;2.63;1.98;;;;;;;;;;5444173;26;20247;-68
2024/04/16 12:05:14;;;;;;;1.30;1.30;;;;;;;;;;5452303;26;20493;-69
2024/04/16 12:07:40;;;;;;;5.35;1.85;;;;;;;;;;5444094;26;19991;-67
2024/04/16 12:10:06;;;;;;;4.38;1.60;;;;;;;;;;5418519;26;19998;-68
2024/04/16 12:12:33;;;;;;;3.05;1.90;;;;;;;;;;5441588;26;20427;-67
2024/04/16 12:14:59;;;;;;;2.30;1.65;;;;;;;;;;5455439;26;19995;-69
2024/04/16 12:17:25;;;;;;;4.13;2.38;;;;;;;;;;5447262;26;20463;-68
2024/04/16 12:19:52;;;;;;;1.90;1.70;;;;;;;;;;5461309;26;20013;-68
2024/04/16 12:22:20;;;;;;;1.67;1.58;;;;;;;;;;5429749;26;19995;-68
2024/04/16 12:24:46;;;;;;;1.50;1.50;;;;;;;;;;5438669;26;20002;-64
2024/04/16 12:27:12;;;;;;;3.97;1.80;;;;;;;;;;5438205;26;20362;-64
2024/04/16 12:29:41;;;;;;;2.65;1.50;;;;;;;;;;5455609;26;20489;-65
2024/04/16 12:32:09;;;;;;;2.13;1.50;;;;;;;;;;5413487;26;20047;-64
2024/04/16 12:34:35;;;;;;;1.60;1.50;;;;;;;;;;5439651;26;20366;-65
2024/04/16 12:37:02;;;;;;;6.18;1.85;;;;;;;;;;5443534;26;20074;-65
2024/04/16 12:39:28;;;;;;;1.65;1.55;;;;;;;;;;5450536;26;20002;-64
2024/04/16 12:41:59;;;;;;;2.97;1.85;;;;;;;;;;5444955;26;20006;-64
2024/04/16 12:44:26;;;;;;;1.73;1.63;;;;;;;;;;5452962;26;19998;-65
2024/04/16 12:46:52;;;;;;;2.55;1.80;;;;;;;;;;5443348;26;20060;-66
2024/04/16 12:49:25;;;;;;;2.38;1.52;;;;;;;;;;5417365;26;20001;-66
2024/04/16 12:51:52;;;;;;;6.05;1.77;;;;;;;;;;5445921;26;20023;-65
2024/04/16 12:54:19;;;;;;;3.33;1.67;;;;;;;;;;5455179;26;20011;-66
2024/04/16 12:56:49;;;;;;;1.80;1.33;;;;;;;;;;5412871;26;20071;-67
2024/04/16 12:59:19;;;;;;;2.17;1.92;;;;;;;;;;5414013;26;20007;-66
2024/04/16 13:01:45;;;;;;;1.40;1.40;;;;;;;;;;5451528;26;19995;-65
2024/04/16 13:04:11;;;;;;;1.48;1.40;;;;;;;;;;5409874;26;20003;-67
2024/04/16 13:06:38;;;;;;;1.85;1.52;;;;;;;;;;5447713;26;20024;-66
2024/04/16 13:09:06;;;;;;;1.00;1.00;;;;;;;;;;5446680;26;20019;-68
2024/04/16 13:11:34;;;;;;;1.40;1.40;;;;;;;;;;5453358;26;19990;-69
2024/04/16 13:14:00;;;;;;;1.35;1.25;;;;;;;;;;5420421;26;20359;-69
2024/04/16 13:16:26;;;;;;;2.35;1.60;;;;;;;;;;5446164;26;20478;-68
2024/04/16 13:18:53;;;;;;;2.15;1.50;;;;;;;;;;5421320;26;19999;-68
2024/04/16 13:21:19;;;;;;;2.22;1.40;;;;;;;;;;5414257;26;20440;-67
2024/04/16 13:23:45;;;;;;;2.88;1.60;;;;;;;;;;5450765;26;20030;-69
2024/04/16 13:26:12;;;;;;;1.58;1.48;;;;;;;;;;5447901;26;20030;-67
2024/04/16 13:28:38;;;;;;;1.88;1.40;;;;;;;;;;5416397;26;20074;-66
2024/04/16 13:31:04;;;;;;;3.95;2.55;;;;;;;;;;5450158;26;20493;-67
2024/04/16 13:33:31;;;;;;;2.70;1.60;;;;;;;;;;5448631;26;20002;-67
2024/04/16 13:35:58;;;;;;;2.17;1.60;;;;;;;;;;5423335;26;20338;-67
2024/04/16 13:38:24;;;;;;;2.50;1.52;;;;;;;;;;5451616;26;20539;-68
2024/04/16 13:40:51;;;;;;;1.58;1.30;;;;;;;;;;5454701;26;20362;-67
2024/04/16 13:43:17;;;;;;;3.17;1.30;;;;;;;;;;5444103;26;20003;-67
2024/04/16 13:45:44;;;;;;;1.85;1.65;;;;;;;;;;5451469;26;20007;-67
2024/04/16 13:48:11;;;;;;;2.65;1.65;;;;;;;;;;5412416;26;20002;-66
2024/04/16 13:50:41;;;;;;;2.35;1.58;;;;;;;;;;5422435;26;19995;-68
2024/04/16 13:53:08;;;;;;;2.20;0.90;;;;;;;;;;5455849;26;20075;-68
2024/04/16 13:55:36;;;;;;;0.90;0.90;;;;;;;;;;5416418;26;20430;-70
2024/04/16 13:58:03;;;;;;;2.10;1.60;;;;;;;;;;5410086;26;20005;-68
2024/04/16 14:00:29;;;;;;;1.17;1.15;;;;;;;;;;5444759;26;19996;-67
2024/04/16 14:02:56;;;;;;;2.72;1.50;;;;;;;;;;5445775;26;20081;-67
2024/04/16 14:05:22;;;;;;;2.92;1.63;;;;;;;;;;5412104;26;19998;-67
2024/04/16 14:07:48;;;;;;;1.48;1.45;;;;;;;;;;5450058;26;20013;-68
2024/04/16 14:10:15;;;;;;;2.33;1.50;;;;;;;;;;5448518;26;20012;-68
2024/04/16 14:12:43;;;;;;;1.48;1.40;;;;;;;;;;5449676;26;20383;-65
2024/04/16 14:15:10;;;;;;;1.65;1.45;;;;;;;;;;5413728;26;20228;-64
2024/04/16 14:17:46;;;;;;;1.70;1.42;;;;;;;;;;5424586;26;19999;-64
2024/04/16 14:20:14;;;;;;;1.40;1.40;;;;;;;;;;5451842;26;20009;-67
2024/04/16 14:22:40;;;;;;;1.10;1.10;;;;;;;;;;5458676;26;21875;-64
2024/04/16 14:25:06;;;;;;;1.35;1.25;;;;;;;;;;5447920;26;20107;-65
2024/04/16 14:27:33;;;;;;;15.90;8.15;;;;;;;;;;5448502;26;20003;-65
2024/04/16 14:30:01;;;;;;;1.90;1.45;;;;;;;;;;5449205;26;20021;-67
2024/04/16 14:32:27;;;;;;;1.67;1.00;;;;;;;;;;5458927;26;20378;-65
2024/04/16 14:34:55;;;;;;;23.40;10.60;;;;;;;;;;5419445;26;20235;-67
2024/04/16 14:37:26;;;;;;;1.80;1.60;;;;;;;;;;5414162;26;20006;-67
2024/04/16 14:39:53;;;;;;;1.45;1.35;;;;;;;;;;5422560;26;20098;-68
2024/04/16 14:42:20;;;;;;;1.75;1.15;;;;;;;;;;5424254;26;19994;-68
2024/04/16 14:44:50;;;;;;;2.10;1.90;;;;;;;;;;5453039;26;20002;-68